Time;durP1;ratioP1;P1;durP2;ratioP2;P2;SDS_P1;SDS_P2;PMS_P1;PMS_P2;Temp;Humidity;BMP_temperature;BMP_pressure;BME280_temperature;BME280_humidity;BME280_pressure;Samples;Min_cycle;Max_cycle;Signal;HPM_P1;HPM_P2
2021/12/26 00:00:46;;;;;;;;;;;-3.90;80.50;;;;;;5036359;28;20035;-68
2021/12/26 00:03:12;;;;;;;12.05;5.55;;;-3.90;79.80;;;;;;5035444;28;19936;-68
2021/12/26 00:05:38;;;;;;;10.95;5.50;;;-3.90;80.70;;;;;;5036352;28;20371;-67
2021/12/26 00:08:04;;;;;;;14.27;6.80;;;-3.90;80.20;;;;;;4348723;28;10000298;-67
2021/12/26 00:10:30;;;;;;;11.98;5.45;;;-3.90;80.40;;;;;;5031051;28;20083;-68
2021/12/26 00:12:57;;;;;;;11.63;5.20;;;-3.90;80.30;;;;;;5030704;28;20108;-67
2021/12/26 00:15:23;;;;;;;12.43;5.70;;;-3.90;80.90;;;;;;5031372;28;20426;-67
2021/12/26 00:17:49;;;;;;;11.77;5.65;;;-3.90;80.80;;;;;;5030502;28;20155;-66
2021/12/26 00:20:15;;;;;;;12.18;5.40;;;-3.80;80.20;;;;;;5030540;28;20100;-66
2021/12/26 00:22:42;;;;;;;11.32;5.32;;;-3.90;80.50;;;;;;5011990;28;20474;-66
2021/12/26 00:25:08;;;;;;;12.05;5.65;;;-3.90;80.30;;;;;;5030651;28;20038;-67
2021/12/26 00:27:35;;;;;;;11.90;5.38;;;-3.90;80.60;;;;;;5012985;28;20068;-66
2021/12/26 00:30:03;;;;;;;11.27;5.35;;;-3.90;80.70;;;;;;5030875;28;20055;-66
2021/12/26 00:32:28;;;;;;;13.75;5.60;;;-3.90;80.70;;;;;;5030081;28;20025;-66
2021/12/26 00:34:54;;;;;;;14.43;5.20;;;-3.90;80.30;;;;;;5029588;28;20041;-65
2021/12/26 00:37:20;;;;;;;12.20;5.40;;;-3.90;79.80;;;;;;5029244;28;20021;-66
2021/12/26 00:39:45;;;;;;;11.60;5.30;;;-4.00;80.30;;;;;;5030345;28;20084;-68
2021/12/26 00:42:11;;;;;;;11.27;5.40;;;-4.00;80.90;;;;;;5012027;28;20042;-68
2021/12/26 00:44:40;;;;;;;12.45;5.72;;;-4.20;81.60;;;;;;5030227;28;20107;-68
2021/12/26 00:47:10;;;;;;;;;;;-4.20;82.60;;;;;;5029354;28;20040;-68
2021/12/26 00:49:37;;;;;;;12.70;5.80;;;-4.10;81.50;;;;;;5030140;28;20336;-67
2021/12/26 00:52:04;;;;;;;11.20;5.43;;;-4.20;82.00;;;;;;5028347;28;20461;-68
2021/12/26 00:54:30;;;;;;;14.13;5.50;;;-4.10;81.20;;;;;;5028876;28;20072;-68
2021/12/26 00:56:56;;;;;;;11.13;5.68;;;-4.10;82.00;;;;;;5035107;28;20024;-65
2021/12/26 00:59:23;;;;;;;13.23;5.90;;;-4.10;81.50;;;;;;5041001;28;20075;-65
2021/12/26 01:01:49;;;;;;;13.20;5.60;;;-4.20;80.90;;;;;;5036873;28;20498;-67
2021/12/26 01:04:15;;;;;;;11.75;5.38;;;-4.20;82.50;;;;;;5034396;28;20080;-68
2021/12/26 01:06:41;;;;;;;11.75;5.45;;;-4.20;83.20;;;;;;5030352;28;20489;-67
2021/12/26 01:09:12;;;;;;;11.05;5.30;;;-4.20;81.90;;;;;;5028492;28;20033;-66
2021/12/26 01:11:42;;;;;;;143.60;69.85;;;-4.10;80.70;;;;;;5029064;28;20020;-65
2021/12/26 01:14:12;;;;;;;65.25;33.65;;;-4.10;84.00;;;;;;5047640;28;20667;-66
2021/12/26 01:16:39;;;;;;;12.02;5.75;;;-4.10;84.90;;;;;;5050462;28;20022;-66
2021/12/26 01:19:11;;;;;;;11.85;6.00;;;-4.00;81.10;;;;;;5052458;28;20394;-67
2021/12/26 01:21:37;;;;;;;14.73;6.05;;;-4.00;79.70;;;;;;5113227;22;20491;-64
2021/12/26 01:24:12;;;;;;;11.70;5.85;;;-4.00;79.50;;;;;;5091721;28;20396;-64
2021/12/26 01:26:39;;;;;;;10.25;5.28;;;-4.00;80.60;;;;;;5073352;28;20031;-64
2021/12/26 01:29:05;;;;;;;12.68;5.43;;;-4.10;81.30;;;;;;5073488;28;20051;-64
2021/12/26 01:31:32;;;;;;;11.52;5.53;;;-4.10;80.60;;;;;;5073235;28;20031;-64
2021/12/26 01:34:01;;;;;;;12.18;5.57;;;-4.00;80.40;;;;;;5072606;28;20467;-64
2021/12/26 01:36:28;;;;;;;12.57;5.80;;;-4.00;81.10;;;;;;5091667;28;20076;-65
2021/12/26 01:38:57;;;;;;;11.37;5.67;;;-4.10;80.70;;;;;;5073481;28;20116;-65
2021/12/26 01:41:23;;;;;;;;;;;-4.10;80.60;;;;;;5073632;28;20049;-66
2021/12/26 01:43:52;;;;;;;13.10;5.40;;;-4.10;80.20;;;;;;5090739;28;19977;-65
2021/12/26 01:46:18;;;;;;;11.02;5.30;;;-4.10;80.20;;;;;;5091207;28;20016;-65
2021/12/26 01:48:44;;;;;;;12.88;6.05;;;-4.10;80.30;;;;;;5091265;28;20404;-65
2021/12/26 01:51:10;;;;;;;12.13;5.28;;;-4.00;79.30;;;;;;5072973;28;20028;-66
2021/12/26 01:53:40;;;;;;;11.57;5.43;;;-4.00;79.60;;;;;;5090395;28;20063;-66
2021/12/26 01:56:12;;;;;;;11.40;5.18;;;-4.00;78.80;;;;;;5091493;28;20449;-65
2021/12/26 01:58:39;;;;;;;12.60;5.68;;;-4.00;78.30;;;;;;5091159;28;20056;-66
2021/12/26 02:01:12;;;;;;;11.68;5.60;;;-4.00;79.00;;;;;;5091310;28;20032;-66
2021/12/26 02:03:39;;;;;;;13.57;5.50;;;-4.00;79.00;;;;;;5090465;28;20020;-65
2021/12/26 02:06:07;;;;;;;11.55;5.20;;;-4.10;79.50;;;;;;5091041;28;20024;-65
2021/12/26 02:08:34;;;;;;;12.20;5.45;;;-4.10;78.20;;;;;;5072940;28;20039;-66
2021/12/26 02:11:02;;;;;;;13.13;5.63;;;-4.00;78.40;;;;;;5091038;28;20024;-65
2021/12/26 02:13:29;;;;;;;12.30;5.82;;;-4.00;80.00;;;;;;5072268;28;20498;-65
2021/12/26 02:15:56;;;;;;;12.55;5.57;;;-4.10;79.40;;;;;;5072698;28;20087;-66
2021/12/26 02:18:21;;;;;;;10.68;5.60;;;-4.00;78.60;;;;;;5091141;28;20020;-65
2021/12/26 02:21:15;;;;;;;11.25;5.80;;;-4.00;78.10;;;;;;5090895;28;20028;-66
2021/12/26 02:23:55;;;;;;;10.73;5.55;;;-4.00;78.90;;;;;;5090537;28;20502;-65
2021/12/26 02:29:05;;;;;;;12.32;5.72;;;-4.00;78.00;;;;;;5095254;28;20053;-65
2021/12/26 02:31:31;;;;;;;10.88;5.35;;;-3.90;77.30;;;;;;5095019;28;20029;-65
2021/12/26 02:33:56;;;;;;;11.43;5.40;;;-3.90;76.60;;;;;;5094572;28;20156;-65
2021/12/26 02:36:22;;;;;;;12.27;5.70;;;-3.90;77.10;;;;;;5076911;28;20027;-65
2021/12/26 02:38:48;;;;;;;14.60;5.80;;;-3.90;77.10;;;;;;5076759;28;20111;-65
2021/12/26 02:41:14;;;;;;;13.07;5.82;;;-3.90;77.10;;;;;;5076817;28;20031;-65
2021/12/26 02:43:39;;;;;;;11.63;5.60;;;-3.90;76.70;;;;;;5076078;28;20027;-64
2021/12/26 02:46:06;;;;;;;12.07;5.60;;;-3.90;76.90;;;;;;5094932;28;20152;-66
2021/12/26 02:48:34;;;;;;;13.00;5.55;;;-4.00;77.70;;;;;;5094889;28;20574;-66
2021/12/26 02:51:01;;;;;;;12.10;5.85;;;-4.00;77.40;;;;;;5076701;28;20118;-66
2021/12/26 02:53:27;;;;;;;10.50;5.28;;;-4.00;77.00;;;;;;5075974;28;20442;-66
2021/12/26 02:55:55;;;;;;;11.75;5.60;;;-4.10;78.90;;;;;;5094777;28;20071;-66
2021/12/26 02:58:22;;;;;;;11.32;5.60;;;-4.10;78.30;;;;;;5098821;28;20106;-66
2021/12/26 03:00:54;;;;;;;11.80;5.90;;;-4.10;78.20;;;;;;5098204;28;20032;-65
2021/12/26 03:03:20;;;;;;;13.13;5.43;;;-4.10;79.40;;;;;;5079815;28;20107;-65
2021/12/26 03:05:53;;;;;;;12.40;6.10;;;-4.00;78.80;;;;;;5094574;28;20514;-65
2021/12/26 03:08:18;;;;;;;15.90;5.75;;;-3.90;76.90;;;;;;5075310;28;20035;-66
2021/12/26 03:10:44;;;;;;;10.45;5.40;;;-3.90;77.30;;;;;;5094296;28;20028;-65
2021/12/26 03:13:12;;;;;;;13.20;5.93;;;-4.00;77.50;;;;;;5075428;28;20028;-65
2021/12/26 03:15:39;;;;;;;10.75;5.60;;;-4.00;77.30;;;;;;5075988;28;20065;-65
2021/12/26 03:18:06;;;;;;;11.75;5.72;;;-4.00;78.50;;;;;;5076092;28;20024;-65
2021/12/26 03:20:34;;;;;;;12.98;5.70;;;-3.90;76.60;;;;;;5093931;28;20384;-65
2021/12/26 03:23:01;;;;;;;13.10;6.18;;;-3.90;77.90;;;;;;5093463;28;20535;-65
2021/12/26 03:25:28;;;;;;;11.25;5.57;;;-4.00;77.10;;;;;;5094167;28;20077;-66
2021/12/26 03:27:54;;;;;;;11.07;5.38;;;-4.00;78.60;;;;;;5075871;28;20161;-65
2021/12/26 03:30:23;;;;;;;13.55;5.85;;;-4.10;78.60;;;;;;5093908;28;20028;-65
2021/12/26 03:32:49;;;;;;;11.80;5.47;;;-4.10;77.60;;;;;;5075120;28;20024;-65
2021/12/26 03:35:15;;;;;;;11.57;5.50;;;-4.10;78.50;;;;;;5093753;28;20031;-65
2021/12/26 03:37:42;;;;;;;12.60;5.88;;;-4.00;78.00;;;;;;5093251;28;20020;-66
2021/12/26 03:40:11;;;;;;;11.75;5.70;;;-4.10;78.10;;;;;;5075396;28;20028;-65
2021/12/26 03:42:38;;;;;;;11.95;5.60;;;-4.10;77.80;;;;;;5074909;28;20464;-65
2021/12/26 03:45:06;;;;;;;11.75;5.60;;;-4.10;78.50;;;;;;5075610;28;20028;-65
2021/12/26 03:47:33;;;;;;;11.93;5.90;;;-4.00;77.90;;;;;;5075357;28;20479;-66
2021/12/26 03:49:59;;;;;;;13.63;5.85;;;-4.10;76.90;;;;;;5075278;28;20078;-66
2021/12/26 03:52:25;;;;;;;12.10;5.75;;;-4.10;78.10;;;;;;5074702;28;20016;-66
2021/12/26 03:54:52;;;;;;;11.93;5.82;;;-4.00;77.30;;;;;;5093541;28;20034;-66
2021/12/26 03:57:18;;;;;;;13.73;6.03;;;-4.00;77.80;;;;;;5075456;28;20116;-66
2021/12/26 03:59:44;;;;;;;12.50;5.72;;;-4.00;76.70;;;;;;5093458;28;20024;-65
2021/12/26 04:02:11;;;;;;;13.23;6.00;;;-4.00;78.10;;;;;;5074671;28;20051;-66
2021/12/26 04:04:37;;;;;;;14.05;6.38;;;-4.00;79.00;;;;;;5093215;28;20020;-64
2021/12/26 04:07:03;;;;;;;13.63;6.03;;;-3.90;78.40;;;;;;5075214;28;20070;-65
2021/12/26 04:09:29;;;;;;;13.30;5.90;;;-3.90;79.00;;;;;;5075314;28;20073;-66
2021/12/26 04:11:54;;;;;;;11.57;5.60;;;-3.80;79.30;;;;;;5092408;28;20028;-66
2021/12/26 04:14:21;;;;;;;12.60;6.18;;;-3.80;77.80;;;;;;5075151;28;20024;-66
2021/12/26 04:16:47;;;;;;;12.18;5.88;;;-3.80;78.30;;;;;;5074996;28;20392;-66
2021/12/26 04:19:13;;;;;;;12.43;6.00;;;-3.70;77.90;;;;;;5074883;28;20071;-65
2021/12/26 04:21:38;;;;;;;11.80;5.80;;;-3.80;77.30;;;;;;5073982;28;20036;-65
2021/12/26 04:24:05;;;;;;;12.90;6.03;;;-3.80;78.60;;;;;;5093073;28;20418;-65
2021/12/26 04:26:31;;;;;;;11.55;5.82;;;-3.70;79.30;;;;;;5092687;28;20498;-65
2021/12/26 04:28:57;;;;;;;12.57;5.93;;;-3.80;79.40;;;;;;5092980;28;20032;-65
2021/12/26 04:31:23;;;;;;;13.15;6.00;;;-3.70;78.70;;;;;;5092526;28;20020;-65
2021/12/26 04:33:49;;;;;;;12.23;6.03;;;-3.80;78.20;;;;;;5073668;28;20527;-66
2021/12/26 04:36:16;;;;;;;13.90;6.28;;;-3.80;78.10;;;;;;5074424;28;20041;-67
2021/12/26 04:38:42;;;;;;;12.38;5.88;;;-3.90;79.20;;;;;;5092413;28;20020;-65
2021/12/26 04:41:07;;;;;;;14.27;7.05;;;-3.90;79.70;;;;;;5092311;28;20568;-65
2021/12/26 04:43:35;;;;;;;12.38;5.80;;;-3.90;80.60;;;;;;5073440;28;20028;-66
2021/12/26 04:46:05;;;;;;;13.88;6.78;;;-3.90;80.50;;;;;;5074297;28;20091;-66
2021/12/26 04:48:31;;;;;;;13.90;6.15;;;-3.90;80.60;;;;;;5074065;28;20032;-66
2021/12/26 04:50:58;;;;;;;80.50;39.33;;;-3.80;80.80;;;;;;5092324;28;20067;-66
2021/12/26 04:53:24;;;;;;;16.35;7.50;;;-3.80;84.10;;;;;;5073238;28;20806;-66
2021/12/26 04:55:49;;;;;;;13.90;6.10;;;-3.70;82.50;;;;;;5074064;28;20476;-66
2021/12/26 04:58:15;;;;;;;12.82;6.13;;;-3.80;81.00;;;;;;5092258;28;20058;-66
2021/12/26 05:00:41;;;;;;;13.02;5.97;;;-3.90;80.90;;;;;;5073980;28;20026;-66
2021/12/26 05:03:08;;;;;;;12.20;5.80;;;-3.80;82.40;;;;;;5091312;28;20031;-67
2021/12/26 05:05:35;;;;;;;13.88;5.82;;;-3.80;81.20;;;;;;5091720;28;20032;-65
2021/12/26 05:08:01;;;;;;;15.40;6.70;;;-3.80;81.90;;;;;;5091842;28;20088;-66
2021/12/26 05:10:28;;;;;;;13.77;6.22;;;-3.80;82.10;;;;;;5091871;28;20024;-66
2021/12/26 05:12:55;;;;;;;12.13;6.10;;;-3.90;82.60;;;;;;5091080;28;20016;-66
2021/12/26 05:15:21;;;;;;;11.00;5.50;;;-3.90;83.00;;;;;;5091870;28;20437;-66
2021/12/26 05:17:49;;;;;;;11.60;5.80;;;-3.90;83.80;;;;;;5073637;28;20107;-66
2021/12/26 05:20:15;;;;;;;11.30;5.70;;;-4.00;83.70;;;;;;5091452;28;20059;-65
2021/12/26 05:22:41;;;;;;;13.98;6.50;;;-4.10;84.20;;;;;;5072964;28;20024;-65
2021/12/26 05:25:07;;;;;;;14.77;6.45;;;-4.10;84.10;;;;;;5073521;28;20028;-66
2021/12/26 05:27:36;;;;;;;12.80;6.05;;;-4.20;84.00;;;;;;5091583;28;20028;-64
2021/12/26 05:30:03;;;;;;;12.35;5.70;;;-4.30;85.40;;;;;;5073455;28;20035;-66
2021/12/26 05:32:29;;;;;;;14.63;6.18;;;-4.30;85.90;;;;;;5072523;28;20028;-66
2021/12/26 05:34:54;;;;;;;12.82;5.95;;;-4.30;86.00;;;;;;5091422;28;20388;-66
2021/12/26 05:37:20;;;;;;;12.02;5.70;;;-4.40;86.60;;;;;;5091528;28;20081;-65
2021/12/26 05:39:46;;;;;;;15.10;6.65;;;-4.40;87.30;;;;;;5073403;28;20112;-67
2021/12/26 05:42:15;;;;;;;13.25;6.43;;;-4.30;87.50;;;;;;5090609;28;20051;-66
2021/12/26 05:44:45;;;;;;;14.82;6.18;;;-4.20;87.00;;;;;;5091358;28;20016;-65
2021/12/26 05:47:12;;;;;;;13.52;6.22;;;-4.10;87.70;;;;;;5091178;28;20476;-66
2021/12/26 05:49:38;;;;;;;13.75;6.10;;;-4.10;88.10;;;;;;5072981;28;20028;-64
2021/12/26 05:52:04;;;;;;;14.85;5.95;;;-4.30;87.50;;;;;;5090494;28;20081;-66
2021/12/26 05:54:30;;;;;;;14.63;6.15;;;-4.30;88.50;;;;;;5091185;28;20417;-65
2021/12/26 05:56:56;;;;;;;12.95;6.15;;;-4.20;88.40;;;;;;5073161;28;20078;-66
2021/12/26 05:59:22;;;;;;;13.43;6.20;;;-4.30;89.60;;;;;;5072622;28;20073;-66
2021/12/26 06:01:47;;;;;;;13.80;6.22;;;-4.30;88.60;;;;;;5071994;28;20024;-66
2021/12/26 06:04:13;;;;;;;16.02;6.40;;;-4.30;88.90;;;;;;5091096;28;20031;-66
2021/12/26 06:06:38;;;;;;;13.70;5.97;;;-4.30;88.80;;;;;;5072962;28;20016;-65
2021/12/26 06:09:04;;;;;;;13.50;6.30;;;-4.30;89.50;;;;;;5072796;28;20108;-67
2021/12/26 06:11:30;;;;;;;14.27;6.43;;;-4.30;89.30;;;;;;5090554;28;20048;-65
2021/12/26 06:13:56;;;;;;;12.10;6.15;;;-4.30;89.80;;;;;;5072309;28;20109;-67
2021/12/26 06:16:22;;;;;;;13.40;6.28;;;-4.30;89.20;;;;;;5072769;28;20181;-66
2021/12/26 06:18:47;;;;;;;15.48;6.47;;;-4.20;90.10;;;;;;5091107;28;20100;-66
2021/12/26 06:21:13;;;;;;;14.60;6.10;;;-4.20;89.90;;;;;;5090682;28;20480;-65
2021/12/26 06:23:39;;;;;;;14.13;6.22;;;-4.20;90.40;;;;;;5090113;28;20078;-66
2021/12/26 06:26:04;;;;;;;15.20;6.57;;;-4.20;90.30;;;;;;5090927;28;20032;-67
2021/12/26 06:28:30;;;;;;;13.30;6.57;;;-4.20;90.40;;;;;;5090665;28;20028;-66
2021/12/26 06:30:56;;;;;;;14.27;6.43;;;-4.30;90.60;;;;;;5064038;28;20033;-66
2021/12/26 06:33:21;;;;;;;13.38;6.05;;;-4.30;90.60;;;;;;5088337;28;20016;-66
2021/12/26 06:35:49;;;;;;;13.82;6.28;;;-4.20;90.60;;;;;;5074451;28;20023;-67
2021/12/26 06:38:15;;;;;;;13.70;6.47;;;-4.20;90.90;;;;;;5084347;28;20100;-67
2021/12/26 06:40:40;;;;;;;15.18;6.72;;;-4.10;90.90;;;;;;5070382;28;20107;-66
2021/12/26 06:43:06;;;;;;;15.82;6.22;;;-4.20;90.80;;;;;;5051617;28;20024;-66
2021/12/26 06:45:32;;;;;;;15.35;6.25;;;-4.20;91.20;;;;;;5069780;28;20051;-66
2021/12/26 06:48:01;;;;;;;13.95;6.47;;;-4.20;91.50;;;;;;5083136;28;20024;-66
2021/12/26 06:50:27;;;;;;;16.15;6.40;;;-4.20;91.50;;;;;;5072373;28;20411;-66
2021/12/26 06:52:53;;;;;;;13.85;6.68;;;-4.20;91.60;;;;;;5089939;28;20020;-65
2021/12/26 06:55:18;;;;;;;14.65;6.60;;;-4.20;91.50;;;;;;5072200;28;20027;-65
2021/12/26 06:57:44;;;;;;;13.50;5.95;;;-4.20;91.70;;;;;;5090486;28;20020;-67
2021/12/26 07:00:12;;;;;;;16.08;7.25;;;-4.20;91.80;;;;;;5071670;28;20024;-66
2021/12/26 07:02:38;;;;;;;13.80;6.22;;;-4.20;91.50;;;;;;5089591;28;20031;-66
2021/12/26 07:05:04;;;;;;;13.80;6.25;;;-4.20;92.20;;;;;;5059128;28;20029;-66
2021/12/26 07:07:29;;;;;;;14.50;6.40;;;-4.10;92.10;;;;;;5052260;28;20025;-66
2021/12/26 07:09:55;;;;;;;13.68;5.95;;;-4.10;92.10;;;;;;5052022;28;20026;-66
2021/12/26 07:12:21;;;;;;;13.75;6.13;;;-4.10;91.80;;;;;;5072132;28;20100;-67
2021/12/26 07:14:46;;;;;;;15.02;6.28;;;-4.10;92.00;;;;;;5055703;28;20115;-67
2021/12/26 07:17:12;;;;;;;14.27;6.35;;;-4.00;92.10;;;;;;5073262;28;20099;-65
2021/12/26 07:19:38;;;;;;;15.10;6.10;;;-3.90;92.30;;;;;;5073758;28;20473;-66
2021/12/26 07:22:04;;;;;;;13.98;6.57;;;-3.80;92.00;;;;;;5098970;22;20075;-68
2021/12/26 07:24:30;;;;;;;14.85;6.65;;;-3.80;92.00;;;;;;5095415;28;20020;-68
2021/12/26 07:26:56;;;;;;;17.30;7.60;;;-3.70;91.70;;;;;;5095236;28;20027;-68
2021/12/26 07:29:21;;;;;;;15.43;6.85;;;-3.70;91.70;;;;;;5077028;28;20073;-68
2021/12/26 07:31:47;;;;;;;15.63;6.72;;;-3.60;92.00;;;;;;5076240;28;20476;-67
2021/12/26 07:34:13;;;;;;;15.02;6.60;;;-3.50;91.70;;;;;;5077100;28;20024;-68
2021/12/26 07:36:39;;;;;;;15.55;6.20;;;-3.50;91.80;;;;;;5095316;28;20102;-68
2021/12/26 07:39:06;;;;;;;18.48;7.20;;;-3.40;91.80;;;;;;5095187;28;20528;-68
2021/12/26 07:41:31;;;;;;;14.32;6.15;;;-3.40;91.90;;;;;;5094791;28;20484;-67
2021/12/26 07:43:57;;;;;;;14.30;6.63;;;-3.30;92.00;;;;;;5076499;28;20032;-68
2021/12/26 07:46:23;;;;;;;14.77;6.50;;;-3.30;91.70;;;;;;5076567;28;20024;-68
2021/12/26 07:48:49;;;;;;;17.60;7.22;;;-3.30;91.40;;;;;;5071821;28;20032;-68
2021/12/26 07:51:14;;;;;;;15.43;6.80;;;-3.30;91.30;;;;;;5066994;28;20392;-68
2021/12/26 07:53:40;;;;;;;15.98;6.97;;;-3.30;91.60;;;;;;5085521;28;20027;-68
2021/12/26 07:56:07;;;;;;;14.63;6.45;;;-3.30;91.70;;;;;;5066851;28;20016;-68
2021/12/26 07:58:33;;;;;;;15.57;7.50;;;-3.20;92.00;;;;;;5086137;28;20426;-68
2021/12/26 08:00:58;;;;;;;15.20;6.57;;;-3.20;91.70;;;;;;5064900;28;20028;-68
2021/12/26 08:03:24;;;;;;;14.15;6.88;;;;;;;;;;5067188;28;20024;-66
2021/12/26 08:05:50;;;;;;;18.42;8.10;;;;;;;;;;5084314;28;20086;-69
2021/12/26 08:08:16;;;;;;;14.35;7.40;;;;;;;;;;5088843;28;20062;-68
2021/12/26 08:10:42;;;;;;;16.90;7.75;;;;;;;;;;5082628;28;20472;-69
2021/12/26 08:13:08;;;;;;;16.67;7.15;;;;;;;;;;5063866;28;20444;-68
2021/12/26 08:15:34;;;;;;;15.15;6.35;;;;;;;;;;5061780;28;20024;-68
2021/12/26 08:18:00;;;;;;;17.63;7.90;;;;;;;;;;5085746;28;20485;-68
2021/12/26 08:20:26;;;;;;;15.23;6.90;;;;;;;;;;5084420;28;20024;-68
2021/12/26 08:22:52;;;;;;;15.57;7.60;;;;;;;;;;5065767;28;20053;-69
2021/12/26 08:25:18;;;;;;;16.20;7.30;;;;;;;;;;5069792;28;20141;-69
2021/12/26 08:27:44;;;;;;;15.52;7.65;;;-3.20;91.60;;;;;;5066280;28;20031;-68
2021/12/26 08:30:10;;;;;;;14.95;6.85;;;-2.50;91.40;;;;;;5083390;28;20488;-69
2021/12/26 08:32:39;;;;;;;14.10;6.60;;;-2.40;91.60;;;;;;5081733;28;20515;-65
2021/12/26 08:35:07;;;;;;;15.65;6.68;;;-2.40;91.40;;;;;;5083252;28;20392;-66
2021/12/26 08:37:32;;;;;;;17.75;7.22;;;-2.40;90.90;;;;;;5085768;28;20016;-66
2021/12/26 08:39:58;;;;;;;15.50;7.28;;;-2.30;91.50;;;;;;5067624;28;20165;-66
2021/12/26 08:42:24;;;;;;;14.68;7.10;;;-2.30;91.80;;;;;;5086428;28;20387;-69
2021/12/26 08:44:52;;;;;;;16.08;7.18;;;-2.30;91.50;;;;;;5065482;28;20387;-69
2021/12/26 08:47:19;;;;;;;15.75;7.45;;;-2.10;91.70;;;;;;5066768;28;20027;-69
2021/12/26 08:49:44;;;;;;;15.48;7.43;;;-2.10;91.80;;;;;;5080006;28;20032;-69
2021/12/26 08:52:10;;;;;;;16.30;8.02;;;-2.00;91.50;;;;;;5078455;28;20031;-68
2021/12/26 08:54:37;;;;;;;17.92;8.20;;;-1.90;91.40;;;;;;5059357;28;20013;-68
2021/12/26 08:57:05;;;;;;;15.98;7.72;;;-1.90;91.30;;;;;;5066149;28;20027;-68
2021/12/26 08:59:31;;;;;;;17.30;7.90;;;-1.90;92.10;;;;;;5062196;28;20066;-69
2021/12/26 09:02:06;;;;;;;16.08;8.40;;;-1.90;92.20;;;;;;5063640;28;20036;-69
2021/12/26 09:04:34;;;;;;;16.65;7.78;;;-1.90;92.10;;;;;;5062874;28;20123;-69
2021/12/26 09:07:00;;;;;;;15.35;7.28;;;-1.90;92.20;;;;;;5081391;28;20016;-69
2021/12/26 09:09:28;;;;;;;15.63;7.53;;;-1.90;92.30;;;;;;5085016;28;20035;-68
2021/12/26 09:11:55;;;;;;;16.83;8.32;;;-1.90;92.30;;;;;;5071663;28;20028;-69
2021/12/26 09:14:20;;;;;;;15.55;7.78;;;-1.90;92.30;;;;;;5085555;28;20020;-67
2021/12/26 09:16:46;;;;;;;17.63;8.68;;;-1.80;92.40;;;;;;5055194;28;20051;-67
2021/12/26 09:19:12;;;;;;;17.20;8.02;;;-1.70;92.30;;;;;;5071916;28;20624;-67
2021/12/26 09:21:37;;;;;;;17.95;8.70;;;-1.60;92.30;;;;;;5088187;28;20043;-68
2021/12/26 09:24:05;;;;;;;16.92;8.13;;;-1.60;92.40;;;;;;5093246;28;20016;-73
2021/12/26 09:26:31;;;;;;;16.90;8.35;;;;;;;;;;5075619;28;20020;-73
2021/12/26 09:28:57;;;;;;;17.33;8.57;;;;;;;;;;5093234;28;20328;-72
2021/12/26 09:31:23;;;;;;;18.13;8.63;;;;;;;;;;5075106;28;20028;-71
2021/12/26 09:33:49;;;;;;;16.88;8.65;;;;;;;;;;5092197;28;20101;-72
2021/12/26 09:36:16;;;;;;;16.17;8.32;;;;;;;;;;5093490;28;20095;-72
2021/12/26 09:38:42;;;;;;;17.75;8.25;;;;;;;;;;5093683;28;20480;-72
2021/12/26 09:41:08;;;;;;;16.65;8.55;;;;;;;;;;5075322;28;20051;-73
2021/12/26 09:43:34;;;;;;;19.08;8.30;;;;;;;;;;5074458;28;20476;-73
2021/12/26 09:45:59;;;;;;;16.77;8.15;;;-1.50;92.40;;;;;;5075085;28;20016;-72
2021/12/26 09:48:26;;;;;;;16.52;8.57;;;-1.10;93.10;;;;;;5093418;28;20392;-75
2021/12/26 09:50:52;;;;;;;15.98;8.27;;;-1.10;92.70;;;;;;5075254;28;20434;-72
2021/12/26 09:53:17;;;;;;;17.70;8.73;;;-1.10;93.20;;;;;;5092540;28;20028;-72
2021/12/26 09:55:43;;;;;;;17.27;8.27;;;-1.10;93.20;;;;;;5093044;28;20028;-72
2021/12/26 09:58:09;;;;;;;18.55;8.32;;;-1.10;93.30;;;;;;5092911;28;20483;-68
2021/12/26 10:00:42;;;;;;;18.58;8.93;;;-0.90;93.30;;;;;;5073681;28;20024;-67
2021/12/26 10:03:18;;;;;;;19.48;8.57;;;-0.90;93.40;;;;;;5073581;28;20120;-67
2021/12/26 10:06:02;;;;;;;17.98;8.85;;;-1.00;93.50;;;;;;5092662;28;20534;-66
2021/12/26 10:08:30;;;;;;;17.75;8.82;;;-0.90;93.40;;;;;;5092217;28;20055;-66
2021/12/26 10:11:14;;;;;;;17.95;7.93;;;-0.80;93.70;;;;;;5074225;28;20481;-66
2021/12/26 10:13:56;;;;;;;17.45;8.35;;;-0.80;94.00;;;;;;5091162;28;20039;-64
2021/12/26 10:16:24;;;;;;;17.38;8.55;;;-0.90;93.70;;;;;;5074210;28;20028;-64
2021/12/26 10:18:50;;;;;;;;;;;-0.80;93.90;;;;;;5092910;28;20422;-65
2021/12/26 10:21:26;;;;;;;17.70;8.60;;;-0.70;93.90;;;;;;5092250;28;19969;-65
2021/12/26 10:23:53;;;;;;;19.15;9.02;;;-0.60;93.90;;;;;;5088619;28;20045;-65
2021/12/26 10:26:21;;;;;;;19.52;9.27;;;-0.50;93.80;;;;;;5092687;28;20024;-65
2021/12/26 10:29:10;;;;;;;19.92;10.05;;;-0.60;93.50;;;;;;5091614;28;20024;-65
2021/12/26 10:31:41;;;;;;;18.23;9.40;;;-0.50;94.00;;;;;;5073013;28;20082;-64
2021/12/26 10:34:13;;;;;;;20.30;9.07;;;-0.50;94.30;;;;;;5073594;28;20028;-64
2021/12/26 10:36:44;;;;;;;19.20;9.70;;;-0.60;93.90;;;;;;5092194;28;20095;-65
2021/12/26 10:39:13;;;;;;;18.65;8.82;;;-0.70;94.30;;;;;;5073901;28;20023;-64
2021/12/26 10:41:59;;;;;;;17.90;8.00;;;;;;;;;;5091378;28;20031;-64
2021/12/26 10:44:27;;;;;;;17.35;8.45;;;;;;;;;;5091227;28;20545;-63
2021/12/26 10:46:54;;;;;;;17.77;8.15;;;;;;;;;;5095948;28;20028;-64
2021/12/26 10:49:25;;;;;;;19.40;9.00;;;;;;;;;;5077824;28;20035;-64
2021/12/26 10:51:51;;;;;;;17.10;8.10;;;-0.60;94.50;;;;;;5095559;28;20097;-65
2021/12/26 10:54:19;;;;;;;17.35;8.48;;;-0.40;96.00;;;;;;5077808;28;20055;-66
2021/12/26 10:57:05;;;;;;;17.98;8.65;;;-0.20;95.50;;;;;;5095892;28;20065;-66
2021/12/26 10:59:30;;;;;;;18.65;8.57;;;-0.30;95.10;;;;;;5095583;28;20084;-66
2021/12/26 11:01:56;;;;;;;17.73;8.75;;;-0.20;94.80;;;;;;5094996;28;20024;-65
2021/12/26 11:04:25;;;;;;;18.60;9.20;;;-0.20;94.80;;;;;;5095747;28;20016;-65
2021/12/26 11:07:08;;;;;;;26.52;15.00;;;-0.30;95.10;;;;;;5095780;28;20054;-66
2021/12/26 11:09:34;;;;;;;19.30;9.75;;;-0.30;95.00;;;;;;5095613;28;20035;-67
2021/12/26 11:12:03;;;;;;;17.88;8.23;;;;;;;;;;5095026;28;20024;-66
2021/12/26 11:14:29;;;;;;;17.27;8.45;;;;;;;;;;5095072;28;20020;-66
2021/12/26 11:16:55;;;;;;;19.45;9.38;;;;;;;;;;5095544;28;20024;-66
2021/12/26 11:19:41;;;;;;;17.33;8.90;;;;;;;;;;5086513;28;20095;-66
2021/12/26 11:22:07;;;;;;;20.27;8.82;;;;;;;;;;5065842;28;20369;-66
2021/12/26 11:24:33;;;;;;;22.15;9.23;;;;;;;;;;5087112;28;20016;-66
2021/12/26 11:26:59;;;;;;;16.80;8.15;;;;;;;;;;5079981;28;20025;-67
2021/12/26 11:29:25;;;;;;;17.55;8.35;;;;;;;;;;5075268;28;20499;-67
2021/12/26 11:31:53;;;;;;;17.27;8.18;;;;;;;;;;5090316;28;20039;-66
2021/12/26 11:34:22;;;;;;;21.33;9.43;;;;;;;;;;5076629;28;20020;-67
2021/12/26 11:36:51;;;;;;;18.00;8.55;;;;;;;;;;5095415;28;20022;-67
2021/12/26 11:39:18;;;;;;;19.58;9.05;;;;;;;;;;5084649;28;20027;-67
2021/12/26 11:42:02;;;;;;;19.52;9.15;;;;;;;;;;5075895;28;20028;-67
2021/12/26 11:44:31;;;;;;;18.83;8.55;;;;;;;;;;5094763;28;20027;-67
2021/12/26 11:47:15;;;;;;;18.50;8.65;;;-0.30;95.00;;;;;;5076980;28;20396;-68
2021/12/26 11:50:17;;;;;;;20.15;8.70;;;0.60;95.80;;;;;;5095158;28;20121;-67
2021/12/26 11:52:46;;;;;;;19.38;9.63;;;;;;;;;;5084679;28;20546;-67
2021/12/26 11:55:30;;;;;;;19.95;9.88;;;;;;;;;;5077508;28;20024;-67
2021/12/26 11:57:59;;;;;;;20.55;9.50;;;;;;;;;;5073446;28;20418;-66
2021/12/26 12:00:33;;;;;;;18.45;9.32;;;;;;;;;;5074619;28;20020;-68
2021/12/26 12:03:00;;;;;;;18.48;9.00;;;;;;;;;;5073688;28;20021;-67
2021/12/26 12:05:33;;;;;;;19.30;9.32;;;;;;;;;;5074457;28;20416;-67
2021/12/26 12:08:07;;;;;;;20.10;9.98;;;0.60;95.40;;;;;;5074111;28;20021;-67
2021/12/26 12:10:55;;;;;;;21.67;10.77;;;1.40;94.90;;;;;;5056008;28;20140;-68
2021/12/26 12:13:26;;;;;;;19.63;9.98;;;1.60;94.50;;;;;;5076825;28;20020;-67
2021/12/26 12:16:04;;;;;;;20.27;9.48;;;1.70;94.30;;;;;;5076204;28;20024;-66
2021/12/26 12:18:33;;;;;;;19.50;9.90;;;;;;;;;;5094461;28;20028;-67
2021/12/26 12:21:06;;;;;;;20.88;9.63;;;;;;;;;;5094000;28;20032;-66
2021/12/26 12:23:32;;;;;;;18.65;9.27;;;;;;;;;;5093450;28;20024;-67
2021/12/26 12:25:58;;;;;;;20.20;10.25;;;;;;;;;;5094209;28;20028;-67
2021/12/26 12:28:32;;;;;;;21.27;9.80;;;;;;;;;;5075572;28;20484;-66
2021/12/26 12:31:03;;;;;;;23.15;9.85;;;;;;;;;;5093309;28;20775;-67
2021/12/26 12:33:31;;;;;;;19.67;9.93;;;;;;;;;;5093292;28;20016;-66
2021/12/26 12:36:00;;;;;;;20.08;10.40;;;;;;;;;;5076020;28;20024;-68
2021/12/26 12:38:46;;;;;;;19.25;9.73;;;;;;;;;;5093945;28;20028;-67
2021/12/26 12:41:30;;;;;;;19.35;9.00;;;;;;;;;;5093705;28;20035;-67
2021/12/26 12:43:57;;;;;;;21.00;9.65;;;;;;;;;;5075219;28;20110;-67
2021/12/26 12:46:23;;;;;;;20.67;9.57;;;;;;;;;;5093607;28;20602;-68
2021/12/26 12:49:05;;;;;;;22.30;10.13;;;;;;;;;;5093932;28;20483;-68
2021/12/26 12:51:33;;;;;;;21.30;9.93;;;;;;;;;;5074997;28;20427;-67
2021/12/26 12:54:00;;;;;;;20.52;10.07;;;;;;;;;;5093263;28;20486;-68
2021/12/26 12:56:33;;;;;;;21.67;10.65;;;;;;;;;;5093540;28;20023;-68
2021/12/26 12:59:15;;;;;;;19.55;9.20;;;;;;;;;;5093811;28;20024;-67
2021/12/26 13:01:42;;;;;;;21.63;9.93;;;;;;;;;;5074218;28;20020;-67
2021/12/26 13:04:08;;;;;;;21.10;10.10;;;;;;;;;;5093513;28;20023;-68